Time;durP1;ratioP1;P1;durP2;ratioP2;P2;SDS_P1;SDS_P2;PMS_P1;PMS_P2;Temp;Humidity;BMP_temperature;BMP_pressure;BME280_temperature;BME280_humidity;BME280_pressure;Samples;Min_cycle;Max_cycle;Signal;HPM_P1;HPM_P2
2022/09/04 00:00:14;;;;;;;;;;;;;;;;;;1050142;28;4036;-55
2022/09/04 00:01:11;;;;;;;;;;;;;;;;;;1046987;28;3941;-49
2022/09/04 00:01:50;;;;;;;;;;;;;;;;;;1043425;28;3929;-53
2022/09/04 00:02:28;;;;;;;;;;;;;;;;;;1043259;28;4027;-52
2022/09/04 00:03:05;;;;;;;;;;;;;;;;;;1046909;28;4036;-54
2022/09/04 00:03:39;;;;;;;;;;;;;;;;;;1049268;28;2264;-49
2022/09/04 00:04:34;;;;;;;;;;;;;;;;;;1050736;28;4044;-51
2022/09/04 00:05:12;;;;;;;;;;;;;;;;;;1046718;28;4037;-53
2022/09/04 00:05:42;;;;;;;;;;;;;;;;;;1047487;28;3932;-55
2022/09/04 00:06:14;;;;;;;;;;;;;;;;;;1046407;28;5598;-50
2022/09/04 00:06:51;;;;;;;;;;;;;;;;;;1048955;28;1772;-52
2022/09/04 00:07:28;;;;;;;;;;;;;;;;;;1050090;28;3962;-55
2022/09/04 00:08:02;;;;;;;;;;;;;;;;;;1050083;28;4049;-51
2022/09/04 00:08:38;;;;;;;;;;;;;;;;;;1046293;28;3181;-53
2022/09/04 00:09:14;;;;;;;;;;;;;;;;;;1047108;28;4556;-54
2022/09/04 00:09:50;;;;;;;;;;;;;;;;;;1044994;28;3466;-53
2022/09/04 00:10:35;;;;;;;;;;;;;;;;;;1048978;28;3791;-50
2022/09/04 00:11:05;;;;;;;;;;;;;;;;;;1050596;28;3874;-53
2022/09/04 00:11:44;;;;;;;;;;;;;;;;;;1050285;28;3409;-49
2022/09/04 00:12:16;;;;;;;;;;;;;;;;;;1049968;28;4049;-52
2022/09/04 00:13:05;;;;;;;;;;;;;;;;;;1051148;28;3588;-53
2022/09/04 00:13:38;;;;;;;;;;;;;;;;;;1050567;28;3763;-55
2022/09/04 00:14:14;;;;;;;;;;;;;;;;;;1050510;28;3886;-51
2022/09/04 00:14:46;;;;;;;;;;;;;;;;;;1050394;28;3258;-51
2022/09/04 00:15:21;;;;;;;;;;;;;;;;;;1050160;28;3861;-54
2022/09/04 00:16:04;;;;;;;;;;;;;;;;;;1049707;28;3888;-54
2022/09/04 00:16:41;;;;;;;;;;;;;;;;;;1051216;28;3393;-52
2022/09/04 00:17:26;;;;;;;;;;;;;;;;;;1049659;28;3995;-52
2022/09/04 00:18:15;;;;;;;;;;;;;;;;;;1049446;28;4396;-52
2022/09/04 00:18:53;;;;;;;;;;;;;;;;;;1051860;28;3302;-53
2022/09/04 00:19:33;;;;;;;;;;;;;;;;;;1050187;28;3993;-50
2022/09/04 00:20:11;;;;;;;;;;;;;;;;;;1050417;28;4027;-52
2022/09/04 00:20:45;;;;;;;;;;;;;;;;;;1050995;28;3407;-51
2022/09/04 00:21:22;;;;;;;;;;;;;;;;;;1049276;28;4232;-54
2022/09/04 00:21:56;;;;;;;;;;;;;;;;;;1048646;28;4048;-51
2022/09/04 00:22:42;;;;;;;;;;;;;;;;;;1049946;28;3776;-52
2022/09/04 00:23:18;;;;;;;;;;;;;;;;;;1051658;28;3869;-53
2022/09/04 00:23:58;;;;;;;;;;;;;;;;;;1050267;28;3881;-51
2022/09/04 00:24:39;;;;;;;;;;;;;;;;;;1049453;28;3506;-54
2022/09/04 00:25:15;;;;;;;;;;;;;;;;;;1050153;28;4052;-53
2022/09/04 00:25:52;;;;;;;;;;;;;;;;;;1049606;28;3811;-54
2022/09/04 00:26:41;;;;;;;;;;;;;;;;;;1050449;28;3761;-52
2022/09/04 00:27:16;;;;;;;;;;;;;;;;;;1051299;28;5630;-50
2022/09/04 00:27:49;;;;;;;;;;;;;;;;;;1049625;28;3809;-53
2022/09/04 00:28:27;;;;;;;;;;;;;;;;;;1051171;28;3669;-50
2022/09/04 00:29:02;;;;;;;;;;;;;;;;;;1048709;28;3946;-53
2022/09/04 00:29:48;;;;;;;;;;;;;;;;;;1049101;28;3353;-53
2022/09/04 00:30:20;;;;;;;;;;;;;;;;;;1050657;28;3820;-49
2022/09/04 00:30:57;;;;;;;;;;;;;;;;;;1050172;28;4068;-53
2022/09/04 00:31:32;;;;;;;;;;;;;;;;;;1052534;28;3858;-49
2022/09/04 00:32:10;;;;;;;;;;;;;;;;;;1049597;28;4260;-51
2022/09/04 00:32:44;;;;;;;;;;;;;;;;;;1051342;28;3650;-50
2022/09/04 00:33:19;;;;;;;;;;;;;;;;;;1052806;28;3858;-49
2022/09/04 00:33:55;;;;;;;;;;;;;;;;;;1050733;28;4291;-54
2022/09/04 00:34:26;;;;;;;;;;;;;;;;;;1051678;28;2681;-52
2022/09/04 00:35:02;;;;;;;;;;;;;;;;;;1048738;28;3803;-50
2022/09/04 00:35:37;;;;;;;;;;;;;;;;;;1050707;28;2911;-49
2022/09/04 00:36:08;;;;;;;;;;;;;;;;;;1049801;28;3888;-51
2022/09/04 00:36:41;;;;;;;;;;;;;;;;;;1050953;28;3717;-54
2022/09/04 00:37:15;;;;;;;;;;;;;;;;;;1048930;28;4154;-52
2022/09/04 00:38:08;;;;;;;;;;;;;;;;;;1049374;28;3919;-53
2022/09/04 00:38:44;;;;;;;;;;;;;;;;;;1039646;28;3902;-51
2022/09/04 00:39:17;;;;;;;;;;;;;;;;;;1038813;28;4022;-51
2022/09/04 00:40:08;;;;;;;;;;;;;;;;;;1050624;28;3265;-48
2022/09/04 00:40:43;;;;;;;;;;;;;;;;;;1050390;28;3879;-53
2022/09/04 00:41:29;;;;;;;;;;;;;;;;;;1049293;28;4093;-52
2022/09/04 00:42:08;;;;;;;;;;;;;;;;;;1049857;28;4389;-53
2022/09/04 00:42:49;;;;;;;;;;;;;;;;;;1049833;28;3045;-51
2022/09/04 00:43:29;;;;;;;;;;;;;;;;;;1050583;28;3781;-49
2022/09/04 00:44:13;;;;;;;;;;;;;;;;;;1050594;28;4043;-54
2022/09/04 00:44:43;;;;;;;;;;;;;;;;;;1046716;28;3546;-48
2022/09/04 00:45:24;;;;;;;;;;;;;;;;;;1042440;28;4130;-52
2022/09/04 00:46:16;;;;;;;;;;;;;;;;;;1044411;28;3892;-53
2022/09/04 00:46:53;;;;;;;;;;;;;;;;;;1044674;28;3892;-53
2022/09/04 00:47:37;;;;;;;;;;;;;;;;;;1047952;28;3842;-49
2022/09/04 00:48:08;;;;;;;;;;;;;;;;;;1048841;28;4102;-52
2022/09/04 00:48:52;;;;;;;;;;;;;;;;;;1049726;28;3061;-50
2022/09/04 00:49:30;;;;;;;;;;;;;;;;;;1051451;28;3852;-54
2022/09/04 00:50:10;;;;;;;;;;;;;;;;;;1050702;28;3929;-53
2022/09/04 00:51:00;;;;;;;;;;;;;;;;;;1050722;28;3698;-53
2022/09/04 00:51:45;;;;;;;;;;;;;;;;;;1051640;28;3682;-49
2022/09/04 00:52:31;;;;;;;;;;;;;;;;;;1048086;28;3773;-53
2022/09/04 00:53:26;;;;;;;;;;;;;;;;;;1051016;28;4134;-53
2022/09/04 00:54:15;;;;;;;;;;;;;;;;;;1050055;28;5594;-51
2022/09/04 00:55:01;;;;;;;;;;;;;;;;;;1049988;28;4399;-53
2022/09/04 00:55:31;;;;;;;;;;;;;;;;;;1051371;28;3756;-50
2022/09/04 00:56:14;;;;;;;;;;;;;;;;;;1049784;28;4030;-53
2022/09/04 00:57:04;;;;;;;;;;;;;;;;;;1050418;28;3041;-53
2022/09/04 00:57:53;;;;;;;;;;;;;;;;;;1049164;28;4411;-52
2022/09/04 00:58:45;;;;;;;;;;;;;;;;;;1048237;28;4776;-50
2022/09/04 00:59:51;;;;;;;;;;;;;;;;;;1048386;28;4072;-53
2022/09/04 01:00:29;;;;;;;;;;;;;;;;;;1046450;28;3979;-54
2022/09/04 01:01:00;;;;;;;;;;;;;;;;;;1045431;28;4128;-51
2022/09/04 01:01:30;;;;;;;;;;;;;;;;;;1046001;28;3774;-51
2022/09/04 01:02:07;;;;;;;;;;;;;;;;;;1046203;28;3909;-52
2022/09/04 01:02:57;;;;;;;;;;;;;;;;;;1045063;28;3490;-51
2022/09/04 01:03:29;;;;;;;;;;;;;;;;;;1046794;28;4126;-51
2022/09/04 01:04:11;;;;;;;;;;;;;;;;;;1046059;28;3879;-53
2022/09/04 01:04:54;;;;;;;;;;;;;;;;;;1046484;28;3638;-53
2022/09/04 01:05:34;;;;;;;;;;;;;;;;;;1045369;28;5234;-50
2022/09/04 01:06:11;;;;;;;;;;;;;;;;;;1046716;28;4165;-53
2022/09/04 01:06:52;;;;;;;;;;;;;;;;;;1046592;28;3807;-53
2022/09/04 01:07:34;;;;;;;;;;;;;;;;;;1046631;28;4745;-53
2022/09/04 01:08:19;;;;;;;;;;;;;;;;;;1044697;28;4053;-52
2022/09/04 01:08:49;;;;;;;;;;;;;;;;;;1044931;28;4054;-50
2022/09/04 01:09:25;;;;;;;;;;;;;;;;;;1046816;28;2570;-48
2022/09/04 01:10:03;;;;;;;;;;;;;;;;;;1046741;28;4054;-50
2022/09/04 01:10:43;;;;;;;;;;;;;;;;;;1046916;28;3441;-49
2022/09/04 01:11:16;;;;;;;;;;;;;;;;;;1046633;28;3931;-47
2022/09/04 01:11:52;;;;;;;;;;;;;;;;;;1045633;28;3596;-50
2022/09/04 01:12:23;;;;;;;;;;;;;;;;;;1047003;28;4698;-50
2022/09/04 01:13:09;;;;;;;;;;;;;;;;;;1047186;28;4085;-55
2022/09/04 01:13:59;;;;;;;;;;;;;;;;;;1047359;28;3094;-53
2022/09/04 01:14:33;;;;;;;;;;;;;;;;;;1045681;28;4102;-55
2022/09/04 01:15:05;;;;;;;;;;;;;;;;;;1046105;28;3978;-51
2022/09/04 01:15:54;;;;;;;;;;;;;;;;;;1046077;28;3646;-51
2022/09/04 01:16:24;;;;;;;;;;;;;;;;;;1046142;28;5477;-54
2022/09/04 01:17:18;;;;;;;;;;;;;;;;;;1046392;28;3961;-55
2022/09/04 01:17:54;;;;;;;;;;;;;;;;;;1047283;28;2987;-52
2022/09/04 01:18:31;;;;;;;;;;;;;;;;;;1043275;28;3955;-54
2022/09/04 01:19:09;;;;;;;;;;;;;;;;;;1046007;28;4099;-50
2022/09/04 01:19:42;;;;;;;;;;;;;;;;;;1046824;28;3007;-53
2022/09/04 01:20:25;;;;;;;;;;;;;;;;;;1048879;28;4439;-50
2022/09/04 01:20:58;;;;;;;;;;;;;;;;;;1049658;28;3910;-53
2022/09/04 01:21:47;;;;;;;;;;;;;;;;;;1048716;28;3808;-51
2022/09/04 01:22:45;;;;;;;;;;;;;;;;;;1048209;28;3839;-51
2022/09/04 01:23:22;;;;;;;;;;;;;;;;;;1047876;28;3949;-48
2022/09/04 01:24:05;;;;;;;;;;;;;;;;;;1049253;28;4324;-52
2022/09/04 01:24:47;;;;;;;;;;;;;;;;;;1046192;28;3521;-55
2022/09/04 01:25:36;;;;;;;;;;;;;;;;;;1046221;28;3983;-48
2022/09/04 01:26:11;;;;;;;;;;;;;;;;;;1044578;28;3975;-52
2022/09/04 01:27:00;;;;;;;;;;;;;;;;;;1047809;28;3169;-53
2022/09/04 01:27:44;;;;;;;;;;;;;;;;;;1045321;28;3601;-49
2022/09/04 01:28:27;;;;;;;;;;;;;;;;;;1045159;28;3970;-51
2022/09/04 01:29:05;;;;;;;;;;;;;;;;;;1046918;28;4042;-51
2022/09/04 01:29:55;;;;;;;;;;;;;;;;;;1043855;28;3733;-54
2022/09/04 01:30:27;;;;;;;;;;;;;;;;;;1044061;28;3897;-53
2022/09/04 01:31:10;;;;;;;;;;;;;;;;;;1045866;28;3884;-55
2022/09/04 01:31:58;;;;;;;;;;;;;;;;;;1045611;28;3640;-52
2022/09/04 01:32:31;;;;;;;;;;;;;;;;;;1045001;28;3940;-50
2022/09/04 01:33:05;;;;;;;;;;;;;;;;;;1046593;28;3911;-52
2022/09/04 01:33:41;;;;;;;;;;;;;;;;;;1047036;28;3281;-52
2022/09/04 01:34:14;;;;;;;;;;;;;;;;;;1046360;28;3995;-53
2022/09/04 01:34:51;;;;;;;;;;;;;;;;;;1046318;28;3799;-52
2022/09/04 01:35:43;;;;;;;;;;;;;;;;;;1044938;28;3816;-55
2022/09/04 01:36:19;;;;;;;;;;;;;;;;;;1046632;28;3992;-49
2022/09/04 01:36:53;;;;;;;;;;;;;;;;;;1047463;28;4060;-53
2022/09/04 01:37:42;;;;;;;;;;;;;;;;;;1046040;28;3729;-50
2022/09/04 01:38:24;;;;;;;;;;;;;;;;;;1045717;28;4051;-51
2022/09/04 01:39:01;;;;;;;;;;;;;;;;;;1045678;28;4179;-49
2022/09/04 01:39:33;;;;;;;;;;;;;;;;;;1045262;28;3276;-52
2022/09/04 01:40:07;;;;;;;;;;;;;;;;;;1042592;28;4027;-52
2022/09/04 01:40:37;;;;;;;;;;;;;;;;;;1044149;28;3134;-50
2022/09/04 01:41:14;;;;;;;;;;;;;;;;;;1048179;28;4118;-49
2022/09/04 01:41:45;;;;;;;;;;;;;;;;;;1047874;28;2677;-55
2022/09/04 01:42:41;;;;;;;;;;;;;;;;;;1046297;28;3872;-50
2022/09/04 01:43:22;;;;;;;;;;;;;;;;;;1038710;28;4009;-51
2022/09/04 01:43:52;;;;;;;;;;;;;;;;;;1041874;28;4102;-50
2022/09/04 01:44:24;;;;;;;;;;;;;;;;;;1045818;28;2552;-55
2022/09/04 01:44:55;;;;;;;;;;;;;;;;;;1046509;28;5319;-52
2022/09/04 01:45:45;;;;;;;;;;;;;;;;;;1047896;28;2162;-55
2022/09/04 01:46:31;;;;;;;;;;;;;;;;;;1045845;28;3647;-51
2022/09/04 01:47:01;;;;;;;;;;;;;;;;;;1046782;28;3874;-50
2022/09/04 01:47:45;;;;;;;;;;;;;;;;;;1046961;28;3023;-51
2022/09/04 01:48:17;;;;;;;;;;;;;;;;;;1047760;28;4771;-53
2022/09/04 01:49:07;;;;;;;;;;;;;;;;;;1047188;28;3265;-51
2022/09/04 01:49:40;;;;;;;;;;;;;;;;;;1047276;28;3875;-52
2022/09/04 01:50:15;;;;;;;;;;;;;;;;;;1047569;28;4024;-51
2022/09/04 01:50:47;;;;;;;;;;;;;;;;;;1047529;28;3642;-52
2022/09/04 01:51:28;;;;;;;;;;;;;;;;;;1046342;28;3933;-49
2022/09/04 01:52:07;;;;;;;;;;;;;;;;;;1046947;28;3923;-54
2022/09/04 01:52:47;;;;;;;;;;;;;;;;;;1047705;28;3862;-54
2022/09/04 01:53:24;;;;;;;;;;;;;;;;;;1046776;28;4021;-51
2022/09/04 01:54:10;;;;;;;;;;;;;;;;;;1046569;28;4038;-51
2022/09/04 01:54:52;;;;;;;;;;;;;;;;;;1046948;28;3641;-49
2022/09/04 01:55:29;;;;;;;;;;;;;;;;;;1047211;28;3985;-52
2022/09/04 01:55:59;;;;;;;;;;;;;;;;;;1047901;28;4062;-48
2022/09/04 01:56:56;;;;;;;;;;;;;;;;;;1046160;28;3021;-50
2022/09/04 01:57:35;;;;;;;;;;;;;;;;;;1042349;28;4062;-53
2022/09/04 01:58:16;;;;;;;;;;;;;;;;;;1046512;28;4066;-52
2022/09/04 01:58:59;;;;;;;;;;;;;;;;;;1051413;28;3885;-55
2022/09/04 01:59:59;;;;;;;;;;;;;;;;;;1051216;28;4082;-50
2022/09/04 02:00:33;;;;;;;;;;;;;;;;;;1035107;28;3889;-51
2022/09/04 02:01:13;;;;;;;;;;;;;;;;;;1050989;28;3913;-52
2022/09/04 02:01:53;;;;;;;;;;;;;;;;;;1052045;28;3777;-52
2022/09/04 02:02:42;;;;;;;;;;;;;;;;;;1050533;28;3651;-50
2022/09/04 02:03:38;;;;;;;;;;;;;;;;;;1050360;28;3934;-50
2022/09/04 02:04:31;;;;;;;;;;;;;;;;;;1051189;28;3915;-50
2022/09/04 02:05:12;;;;;;;;;;;;;;;;;;1041045;28;4066;-54
2022/09/04 02:05:53;;;;;;;;;;;;;;;;;;1051824;28;2405;-53
2022/09/04 02:06:43;;;;;;;;;;;;;;;;;;1045956;28;6454;-53
2022/09/04 02:07:16;;;;;;;;;;;;;;;;;;1047066;28;4116;-51
2022/09/04 02:07:56;;;;;;;;;;;;;;;;;;1048259;28;3792;-51
2022/09/04 02:08:42;;;;;;;;;;;;;;;;;;1051971;28;3807;-53
2022/09/04 02:09:21;;;;;;;;;;;;;;;;;;1048453;28;4022;-52
2022/09/04 02:10:16;;;;;;;;;;;;;;;;;;1047689;28;4301;-50
2022/09/04 02:11:00;;;;;;;;;;;;;;;;;;1046283;28;2898;-54
2022/09/04 02:11:31;;;;;;;;;;;;;;;;;;1050214;28;3618;-51
2022/09/04 02:12:21;;;;;;;;;;;;;;;;;;1050162;28;3916;-49
2022/09/04 02:13:01;;;;;;;;;;;;;;;;;;1038631;28;4161;-51
2022/09/04 02:13:39;;;;;;;;;;;;;;;;;;1051049;28;3230;-53
2022/09/04 02:14:26;;;;;;;;;;;;;;;;;;1051099;28;3879;-53
2022/09/04 02:15:05;;;;;;;;;;;;;;;;;;1050988;28;3977;-52
2022/09/04 02:15:43;;;;;;;;;;;;;;;;;;1052219;28;3197;-55
2022/09/04 02:16:36;;;;;;;;;;;;;;;;;;1050383;28;3964;-49
2022/09/04 02:17:17;;;;;;;;;;;;;;;;;;1051323;28;3890;-53
2022/09/04 02:17:54;;;;;;;;;;;;;;;;;;1050357;28;2891;-48
2022/09/04 02:18:43;;;;;;;;;;;;;;;;;;1051502;28;3708;-53
2022/09/04 02:19:23;;;;;;;;;;;;;;;;;;1049942;28;3974;-52
2022/09/04 02:20:03;;;;;;;;;;;;;;;;;;1051186;28;3954;-51
2022/09/04 02:20:33;;;;;;;;;;;;;;;;;;1051283;28;3809;-50
2022/09/04 02:21:10;;;;;;;;;;;;;;;;;;1046911;28;4358;-51
2022/09/04 02:21:43;;;;;;;;;;;;;;;;;;1046850;28;3782;-49
2022/09/04 02:22:14;;;;;;;;;;;;;;;;;;1048671;28;4051;-49
2022/09/04 02:22:52;;;;;;;;;;;;;;;;;;1048149;28;4497;-53
2022/09/04 02:23:34;;;;;;;;;;;;;;;;;;1051921;28;3946;-50
2022/09/04 02:24:12;;;;;;;;;;;;;;;;;;1051516;28;4085;-52
2022/09/04 02:25:01;;;;;;;;;;;;;;;;;;1050865;28;3307;-52
2022/09/04 02:25:47;;;;;;;;;;;;;;;;;;1051664;28;3648;-48
2022/09/04 02:26:28;;;;;;;;;;;;;;;;;;1050584;28;3818;-54
2022/09/04 02:27:06;;;;;;;;;;;;;;;;;;1049990;28;4083;-51
2022/09/04 02:27:43;;;;;;;;;;;;;;;;;;1051816;28;3756;-51
2022/09/04 02:28:32;;;;;;;;;;;;;;;;;;1050283;28;4019;-55
2022/09/04 02:29:07;;;;;;;;;;;;;;;;;;1045457;28;4033;-56
2022/09/04 02:29:49;;;;;;;;;;;;;;;;;;1047904;28;2748;-52
2022/09/04 02:30:20;;;;;;;;;;;;;;;;;;1043175;28;5137;-51
2022/09/04 02:31:08;;;;;;;;;;;;;;;;;;1042959;28;4276;-52
2022/09/04 02:31:59;;;;;;;;;;;;;;;;;;1046576;28;1782;-51
2022/09/04 02:32:34;;;;;;;;;;;;;;;;;;1050516;28;4046;-52
2022/09/04 02:33:17;;;;;;;;;;;;;;;;;;1050283;28;3944;-50
2022/09/04 02:33:55;;;;;;;;;;;;;;;;;;1050867;28;2822;-50
2022/09/04 02:34:37;;;;;;;;;;;;;;;;;;1050814;28;3987;-52
2022/09/04 02:35:19;;;;;;;;;;;;;;;;;;1050458;28;3951;-49
2022/09/04 02:36:08;;;;;;;;;;;;;;;;;;1046293;28;4081;-53
2022/09/04 02:36:45;;;;;;;;;;;;;;;;;;1046348;28;3014;-50
2022/09/04 02:37:16;;;;;;;;;;;;;;;;;;1046860;28;4021;-53
2022/09/04 02:37:52;;;;;;;;;;;;;;;;;;1051425;28;3055;-52
2022/09/04 02:38:34;;;;;;;;;;;;;;;;;;1050795;28;3922;-52
2022/09/04 02:39:13;;;;;;;;;;;;;;;;;;1052395;28;4382;-49
2022/09/04 02:39:59;;;;;;;;;;;;;;;;;;1046625;28;2867;-52
2022/09/04 02:40:41;;;;;;;;;;;;;;;;;;1049559;28;3941;-52
2022/09/04 02:41:28;;;;;;;;;;;;;;;;;;1048926;28;3858;-51
2022/09/04 02:42:04;;;;;;;;;;;;;;;;;;1050422;28;4411;-52
2022/09/04 02:42:46;;;;;;;;;;;;;;;;;;1051178;28;3006;-51
2022/09/04 02:43:35;;;;;;;;;;;;;;;;;;1050311;28;3833;-53
2022/09/04 02:44:24;;;;;;;;;;;;;;;;;;1051514;28;4924;-50
2022/09/04 02:45:06;;;;;;;;;;;;;;;;;;1050314;28;4049;-53
2022/09/04 02:45:39;;;;;;;;;;;;;;;;;;1050874;28;2932;-54
2022/09/04 02:46:09;;;;;;;;;;;;;;;;;;1051073;28;3954;-52
2022/09/04 02:46:50;;;;;;;;;;;;;;;;;;1048123;28;2407;-54
2022/09/04 02:47:36;;;;;;;;;;;;;;;;;;1048261;28;3748;-55
2022/09/04 02:48:21;;;;;;;;;;;;;;;;;;1046355;28;4017;-52
2022/09/04 02:49:01;;;;;;;;;;;;;;;;;;1048769;28;3978;-51
2022/09/04 02:49:49;;;;;;;;;;;;;;;;;;1051679;28;1571;-52
2022/09/04 02:50:29;;;;;;;;;;;;;;;;;;1051486;28;3932;-50
2022/09/04 02:51:12;;;;;;;;;;;;;;;;;;1049947;28;3923;-50
2022/09/04 02:52:03;;;;;;;;;;;;;;;;;;1052344;28;4155;-53
2022/09/04 02:52:52;;;;;;;;;;;;;;;;;;1051497;28;5090;-54
2022/09/04 02:53:28;;;;;;;;;;;;;;;;;;1051610;28;3721;-50
2022/09/04 02:54:01;;;;;;;;;;;;;;;;;;1046147;28;4023;-49
2022/09/04 02:54:46;;;;;;;;;;;;;;;;;;1047792;28;1752;-52
2022/09/04 02:55:22;;;;;;;;;;;;;;;;;;1046238;28;3816;-50
2022/09/04 02:56:11;;;;;;;;;;;;;;;;;;1049909;28;4032;-53
2022/09/04 02:56:57;;;;;;;;;;;;;;;;;;1051083;28;2899;-49
2022/09/04 02:57:38;;;;;;;;;;;;;;;;;;1050782;28;4166;-50
2022/09/04 02:58:28;;;;;;;;;;;;;;;;;;1049028;28;4052;-50
2022/09/04 02:59:17;;;;;;;;;;;;;;;;;;1045821;28;3933;-50
2022/09/04 03:00:53;;;;;;;;;;;;;;;;;;1046176;28;3002;-49
2022/09/04 03:01:34;;;;;;;;;;;;;;;;;;1046943;28;5293;-51
2022/09/04 03:02:12;;;;;;;;;;;;;;;;;;1046809;28;4034;-51
2022/09/04 03:02:47;;;;;;;;;;;;;;;;;;1046718;28;3102;-51
2022/09/04 03:03:20;;;;;;;;;;;;;;;;;;1045217;28;4290;-49
2022/09/04 03:03:53;;;;;;;;;;;;;;;;;;1045242;28;4446;-50
2022/09/04 03:04:32;;;;;;;;;;;;;;;;;;1045985;28;2506;-56
2022/09/04 03:05:10;;;;;;;;;;;;;;;;;;1049725;28;3991;-50
2022/09/04 03:05:48;;;;;;;;;;;;;;;;;;1052451;28;4031;-51
2022/09/04 03:06:39;;;;;;;;;;;;;;;;;;1053283;28;3986;-53
2022/09/04 03:07:09;;;;;;;;;;;;;;;;;;1046257;28;3854;-52
2022/09/04 03:07:43;;;;;;;;;;;;;;;;;;1046600;28;3158;-51
2022/09/04 03:08:14;;;;;;;;;;;;;;;;;;1047797;28;4035;-53
2022/09/04 03:08:48;;;;;;;;;;;;;;;;;;1046615;28;2830;-54
2022/09/04 03:09:37;;;;;;;;;;;;;;;;;;1048295;28;3779;-52
2022/09/04 03:10:07;;;;;;;;;;;;;;;;;;1045825;28;4071;-51
2022/09/04 03:10:47;;;;;;;;;;;;;;;;;;1047960;28;3077;-51
2022/09/04 03:11:32;;;;;;;;;;;;;;;;;;1052656;28;4003;-52
2022/09/04 03:12:05;;;;;;;;;;;;;;;;;;1049739;28;4237;-52
2022/09/04 03:12:49;;;;;;;;;;;;;;;;;;1048761;28;2629;-53
2022/09/04 03:13:24;;;;;;;;;;;;;;;;;;1047984;28;3924;-50
2022/09/04 03:14:01;;;;;;;;;;;;;;;;;;1045777;28;3778;-51
2022/09/04 03:14:47;;;;;;;;;;;;;;;;;;1047024;28;3201;-52
2022/09/04 03:15:26;;;;;;;;;;;;;;;;;;1046053;28;3809;-54
2022/09/04 03:16:16;;;;;;;;;;;;;;;;;;1045130;28;3923;-52
2022/09/04 03:16:50;;;;;;;;;;;;;;;;;;1047433;28;3037;-53
2022/09/04 03:17:24;;;;;;;;;;;;;;;;;;1045520;28;3866;-49
2022/09/04 03:18:03;;;;;;;;;;;;;;;;;;1044797;28;3772;-53
2022/09/04 03:18:36;;;;;;;;;;;;;;;;;;1046125;28;4032;-52
2022/09/04 03:19:12;;;;;;;;;;;;;;;;;;1045128;28;4606;-54
2022/09/04 03:19:46;;;;;;;;;;;;;;;;;;1046629;28;3039;-53
2022/09/04 03:20:26;;;;;;;;;;;;;;;;;;1046806;28;3951;-50
2022/09/04 03:21:06;;;;;;;;;;;;;;;;;;1046429;28;3957;-54
2022/09/04 03:21:39;;;;;;;;;;;;;;;;;;1047320;28;3164;-52
2022/09/04 03:22:09;;;;;;;;;;;;;;;;;;1047164;28;4150;-50
2022/09/04 03:22:47;;;;;;;;;;;;;;;;;;1047044;28;3827;-51
2022/09/04 03:23:20;;;;;;;;;;;;;;;;;;1045469;28;3987;-50
2022/09/04 03:23:54;;;;;;;;;;;;;;;;;;1046269;28;4250;-49
2022/09/04 03:24:29;;;;;;;;;;;;;;;;;;1046492;28;3332;-51
2022/09/04 03:25:18;;;;;;;;;;;;;;;;;;1046384;28;3933;-55
2022/09/04 03:26:00;;;;;;;;;;;;;;;;;;1046631;28;3103;-53
2022/09/04 03:26:31;;;;;;;;;;;;;;;;;;1046800;28;3856;-51
2022/09/04 03:27:05;;;;;;;;;;;;;;;;;;1048682;28;4117;-53
2022/09/04 03:27:36;;;;;;;;;;;;;;;;;;1047773;28;1894;-52
2022/09/04 03:28:11;;;;;;;;;;;;;;;;;;1047630;28;5008;-54
2022/09/04 03:29:00;;;;;;;;;;;;;;;;;;1046013;28;2977;-53
2022/09/04 03:29:33;;;;;;;;;;;;;;;;;;1046529;28;4698;-52
2022/09/04 03:30:09;;;;;;;;;;;;;;;;;;1047109;28;4077;-51
2022/09/04 03:30:40;;;;;;;;;;;;;;;;;;1047367;28;3148;-53
2022/09/04 03:31:31;;;;;;;;;;;;;;;;;;1048531;28;4063;-55
2022/09/04 03:32:20;;;;;;;;;;;;;;;;;;1047100;28;4475;-50
2022/09/04 03:33:02;;;;;;;;;;;;;;;;;;1045932;28;3974;-50
2022/09/04 03:33:38;;;;;;;;;;;;;;;;;;1046346;28;2599;-49
2022/09/04 03:34:17;;;;;;;;;;;;;;;;;;1046429;28;4095;-50
2022/09/04 03:34:55;;;;;;;;;;;;;;;;;;1047724;28;3806;-55
2022/09/04 03:35:40;;;;;;;;;;;;;;;;;;1045810;28;4109;-50
2022/09/04 03:36:24;;;;;;;;;;;;;;;;;;1046373;28;3954;-50
2022/09/04 03:36:54;;;;;;;;;;;;;;;;;;1045764;28;3968;-49
2022/09/04 03:37:24;;;;;;;;;;;;;;;;;;1049417;28;2239;-53
2022/09/04 03:38:00;;;;;;;;;;;;;;;;;;1046713;28;4079;-53
2022/09/04 03:38:50;;;;;;;;;;;;;;;;;;1047614;28;1824;-51
2022/09/04 03:39:25;;;;;;;;;;;;;;;;;;1046782;28;3995;-53
2022/09/04 03:40:16;;;;;;;;;;;;;;;;;;1045846;28;4001;-52
2022/09/04 03:40:47;;;;;;;;;;;;;;;;;;1045859;28;3753;-53
2022/09/04 03:41:41;;;;;;;;;;;;;;;;;;1048182;28;4012;-51
2022/09/04 03:42:22;;;;;;;;;;;;;;;;;;1046788;28;4063;-56
2022/09/04 03:42:53;;;;;;;;;;;;;;;;;;1045939;28;4105;-52
2022/09/04 03:43:45;;;;;;;;;;;;;;;;;;1048809;28;1574;-55
2022/09/04 03:44:31;;;;;;;;;;;;;;;;;;1046716;28;3881;-52
2022/09/04 03:45:11;;;;;;;;;;;;;;;;;;1044953;28;3898;-55
2022/09/04 03:46:07;;;;;;;;;;;;;;;;;;1047264;28;3895;-53
2022/09/04 03:47:03;;;;;;;;;;;;;;;;;;1046729;28;3957;-52
2022/09/04 03:47:39;;;;;;;;;;;;;;;;;;1046477;28;3673;-52
2022/09/04 03:48:22;;;;;;;;;;;;;;;;;;1047339;28;3902;-50
2022/09/04 03:49:10;;;;;;;;;;;;;;;;;;1047794;28;4092;-52
2022/09/04 03:49:41;;;;;;;;;;;;;;;;;;1047488;28;2290;-53
2022/09/04 03:50:14;;;;;;;;;;;;;;;;;;1046872;28;3911;-54
2022/09/04 03:51:00;;;;;;;;;;;;;;;;;;1046892;28;3844;-52
2022/09/04 03:51:59;;;;;;;;;;;;;;;;;;1047342;28;4039;-53
2022/09/04 03:52:35;;;;;;;;;;;;;;;;;;1031589;28;4024;-54
2022/09/04 03:53:14;;;;;;;;;;;;;;;;;;1046215;28;4013;-52
2022/09/04 03:54:08;;;;;;;;;;;;;;;;;;1046590;28;2789;-49
2022/09/04 03:54:38;;;;;;;;;;;;;;;;;;1034219;28;4291;-54
2022/09/04 03:55:26;;;;;;;;;;;;;;;;;;1045580;28;3772;-56
2022/09/04 03:56:15;;;;;;;;;;;;;;;;;;1046211;28;4205;-51
2022/09/04 03:56:55;;;;;;;;;;;;;;;;;;1046755;28;3837;-50
2022/09/04 03:57:43;;;;;;;;;;;;;;;;;;1045990;28;3821;-50
2022/09/04 03:58:39;;;;;;;;;;;;;;;;;;1048236;28;4034;-49
2022/09/04 03:59:36;;;;;;;;;;;;;;;;;;1044434;28;4246;-51
2022/09/04 04:00:17;;;;;;;;;;;;;;;;;;1042823;28;3848;-49
2022/09/04 04:00:55;;;;;;;;;;;;;;;;;;1042414;28;3423;-50
2022/09/04 04:01:35;;;;;;;;;;;;;;;;;;1042094;28;3770;-51
2022/09/04 04:02:20;;;;;;;;;;;;;;;;;;1042951;28;3880;-54
2022/09/04 04:02:59;;;;;;;;;;;;;;;;;;1042929;28;3988;-54
2022/09/04 04:03:30;;;;;;;;;;;;;;;;;;1046595;28;3306;-54
2022/09/04 04:04:18;;;;;;;;;;;;;;;;;;1048091;28;4205;-55
2022/09/04 04:04:50;;;;;;;;;;;;;;;;;;1045320;28;3852;-54
2022/09/04 04:05:24;;;;;;;;;;;;;;;;;;1045076;28;2940;-52
2022/09/04 04:06:16;;;;;;;;;;;;;;;;;;1042066;28;4208;-53
2022/09/04 04:06:49;;;;;;;;;;;;;;;;;;1041904;28;2915;-52
2022/09/04 04:07:25;;;;;;;;;;;;;;;;;;1043467;28;3721;-52
2022/09/04 04:08:14;;;;;;;;;;;;;;;;;;1041162;28;4035;-51
2022/09/04 04:09:03;;;;;;;;;;;;;;;;;;1042044;28;2938;-51
2022/09/04 04:09:57;;;;;;;;;;;;;;;;;;1041305;28;3876;-54
2022/09/04 04:10:45;;;;;;;;;;;;;;;;;;1036497;28;4101;-52
2022/09/04 04:11:20;;;;;;;;;;;;;;;;;;1038179;28;4024;-56
2022/09/04 04:11:53;;;;;;;;;;;;;;;;;;1040974;28;3918;-53
2022/09/04 04:12:43;;;;;;;;;;;;;;;;;;1043972;28;1721;-51
2022/09/04 04:13:20;;;;;;;;;;;;;;;;;;1042696;28;4058;-54
2022/09/04 04:14:10;;;;;;;;;;;;;;;;;;1039875;28;3941;-53
2022/09/04 04:15:02;;;;;;;;;;;;;;;;;;1040838;28;2731;-53
2022/09/04 04:15:41;;;;;;;;;;;;;;;;;;1042623;28;3746;-52
2022/09/04 04:16:11;;;;;;;;;;;;;;;;;;1042897;28;4034;-53
2022/09/04 04:16:42;;;;;;;;;;;;;;;;;;1041759;28;2675;-50
2022/09/04 04:17:30;;;;;;;;;;;;;;;;;;1041241;28;3976;-52
2022/09/04 04:18:20;;;;;;;;;;;;;;;;;;1041582;28;4086;-53
2022/09/04 04:18:58;;;;;;;;;;;;;;;;;;1041996;28;3935;-54
2022/09/04 04:19:47;;;;;;;;;;;;;;;;;;1049864;28;2104;-52
2022/09/04 04:20:37;;;;;;;;;;;;;;;;;;1043757;28;3807;-50
2022/09/04 04:21:15;;;;;;;;;;;;;;;;;;1043596;28;4159;-53
2022/09/04 04:21:54;;;;;;;;;;;;;;;;;;1045026;28;2903;-51
2022/09/04 04:22:43;;;;;;;;;;;;;;;;;;1042240;28;3998;-53
2022/09/04 04:23:32;;;;;;;;;;;;;;;;;;1043002;28;4040;-53
2022/09/04 04:24:03;;;;;;;;;;;;;;;;;;1042748;28;4978;-53
2022/09/04 04:24:44;;;;;;;;;;;;;;;;;;1041907;28;3138;-53
2022/09/04 04:25:32;;;;;;;;;;;;;;;;;;1042585;28;4060;-50
2022/09/04 04:26:15;;;;;;;;;;;;;;;;;;1044030;28;4430;-49
2022/09/04 04:26:51;;;;;;;;;;;;;;;;;;1045212;28;3863;-50
2022/09/04 04:27:40;;;;;;;;;;;;;;;;;;1042384;28;3879;-50
2022/09/04 04:28:23;;;;;;;;;;;;;;;;;;1042915;28;4107;-52
2022/09/04 04:29:09;;;;;;;;;;;;;;;;;;1042215;28;3886;-51
2022/09/04 04:29:52;;;;;;;;;;;;;;;;;;1042037;28;4340;-51
2022/09/04 04:30:22;;;;;;;;;;;;;;;;;;1042740;28;3771;-54
2022/09/04 04:30:57;;;;;;;;;;;;;;;;;;1041816;28;4274;-48
2022/09/04 04:31:33;;;;;;;;;;;;;;;;;;1042394;28;1819;-53
2022/09/04 04:32:13;;;;;;;;;;;;;;;;;;1042626;28;3899;-54
2022/09/04 04:32:58;;;;;;;;;;;;;;;;;;1041640;28;3417;-49
2022/09/04 04:33:35;;;;;;;;;;;;;;;;;;1041813;28;3768;-51
2022/09/04 04:34:08;;;;;;;;;;;;;;;;;;1042972;28;3974;-51
2022/09/04 04:34:45;;;;;;;;;;;;;;;;;;1042941;28;3156;-52
2022/09/04 04:35:15;;;;;;;;;;;;;;;;;;1042896;28;3933;-51
2022/09/04 04:35:54;;;;;;;;;;;;;;;;;;1041568;28;3596;-51
2022/09/04 04:36:50;;;;;;;;;;;;;;;;;;1042325;28;3806;-50
2022/09/04 04:37:31;;;;;;;;;;;;;;;;;;1043009;28;3762;-55
2022/09/04 04:38:06;;;;;;;;;;;;;;;;;;1041344;28;3810;-53
2022/09/04 04:38:56;;;;;;;;;;;;;;;;;;1042708;28;1659;-52
2022/09/04 04:39:31;;;;;;;;;;;;;;;;;;1042115;28;4049;-50
2022/09/04 04:40:25;;;;;;;;;;;;;;;;;;1041470;28;4001;-54
2022/09/04 04:41:01;;;;;;;;;;;;;;;;;;1039660;28;4065;-51
2022/09/04 04:42:33;;;;;;;;;;;;;;;;;;1041811;28;3842;-53